Time;durP1;ratioP1;P1;durP2;ratioP2;P2;SDS_P1;SDS_P2;PMS_P1;PMS_P2;Temp;Humidity;BMP_temperature;BMP_pressure;BME280_temperature;BME280_humidity;BME280_pressure;Samples;Min_cycle;Max_cycle;Signal;HPM_P1;HPM_P2
2023/10/07 00:01:24;;;;;;;17.02;4.30;;;17.20;99.90;;;;;;4837073;29;20057;-82
2023/10/07 00:03:56;;;;;;;15.13;4.05;;;17.20;99.90;;;;;;4805622;29;20083;-82
2023/10/07 00:06:27;;;;;;;15.85;4.65;;;17.20;99.90;;;;;;4808211;29;20269;-80
2023/10/07 00:08:53;;;;;;;17.70;4.32;;;17.20;99.90;;;;;;4825777;29;20055;-84
2023/10/07 00:11:19;;;;;;;18.00;4.65;;;17.20;99.90;;;;;;4780505;29;20046;-80
2023/10/07 00:13:54;;;;;;;12.48;4.07;;;17.20;99.90;;;;;;4811545;29;20086;-79
2023/10/07 00:16:23;;;;;;;15.00;3.83;;;17.20;99.90;;;;;;4797224;29;20054;-81
2023/10/07 00:18:49;;;;;;;19.15;5.10;;;17.20;99.90;;;;;;4815441;29;20054;-83
2023/10/07 00:21:27;;;;;;;15.85;3.90;;;17.30;99.90;;;;;;4821250;29;20146;-84
2023/10/07 00:23:54;;;;;;;19.05;4.32;;;17.20;99.90;;;;;;4833823;29;20063;-80
2023/10/07 00:26:21;;;;;;;22.67;5.80;;;17.20;99.90;;;;;;4834112;29;20050;-80
2023/10/07 00:29:04;;;;;;;15.63;4.07;;;17.20;99.90;;;;;;4829914;29;20490;-79
2023/10/07 00:31:33;;;;;;;21.52;4.68;;;17.20;99.90;;;;;;4817574;29;20046;-79
2023/10/07 00:34:03;;;;;;;16.08;3.55;;;17.20;99.90;;;;;;4849693;29;20070;-78
2023/10/07 00:36:41;;;;;;;14.95;3.55;;;17.20;99.90;;;;;;4805753;29;20050;-77
2023/10/07 00:39:08;;;;;;;25.48;5.57;;;17.30;99.90;;;;;;4824933;29;20054;-81
2023/10/07 00:41:53;;;;;;;16.48;4.65;;;17.20;99.90;;;;;;4822157;29;20049;-77
2023/10/07 00:44:31;;;;;;;17.38;4.05;;;17.20;99.90;;;;;;4822844;29;20053;-76
2023/10/07 00:49:46;;;;;;;16.53;4.67;;;17.10;99.90;;;;;;4851995;29;20161;-76
2023/10/07 00:52:25;;;;;;;19.05;5.03;;;17.20;99.90;;;;;;4836303;29;20057;-80
2023/10/07 00:54:57;;;;;;;11.48;4.20;;;17.10;99.90;;;;;;4849291;29;20061;-78
2023/10/07 00:57:35;;;;;;;19.80;5.43;;;17.10;99.90;;;;;;4823858;29;20142;-81
2023/10/07 01:00:12;;;;;;;14.80;3.97;;;17.10;99.90;;;;;;4830613;29;20047;-80
2023/10/07 01:02:39;;;;;;;17.58;4.07;;;17.00;99.90;;;;;;4818833;29;20515;-81
2023/10/07 01:05:21;;;;;;;17.02;5.05;;;17.00;99.90;;;;;;4810212;29;20445;-82
2023/10/07 01:07:52;;;;;;;14.65;4.20;;;17.00;99.90;;;;;;4833420;29;20042;-82
2023/10/07 01:10:24;;;;;;;22.63;4.65;;;16.90;99.90;;;;;;4813992;29;20415;-84
2023/10/07 01:12:51;;;;;;;17.73;5.13;;;16.80;99.90;;;;;;4796250;29;20046;-83
2023/10/07 01:17:47;;;;;;;15.10;4.80;;;16.80;99.90;;;;;;4795876;29;20043;-81
2023/10/07 01:20:14;;;;;;;23.45;4.32;;;16.80;99.90;;;;;;4826790;29;20050;-84
2023/10/07 01:23:03;;;;;;;16.33;4.18;;;16.80;99.90;;;;;;4830437;29;20085;-81
2023/10/07 01:25:30;;;;;;;21.73;5.03;;;16.30;99.90;;;;;;4817273;29;20042;-79
2023/10/07 01:28:01;;;;;;;24.23;4.32;;;16.80;99.90;;;;;;4802630;29;20110;-80
2023/10/07 01:30:29;;;;;;;15.40;4.28;;;16.80;99.90;;;;;;4825291;29;20047;-84
2023/10/07 01:33:02;;;;;;;13.70;4.10;;;16.80;99.90;;;;;;4832465;29;20137;-83
2023/10/07 01:35:39;;;;;;;18.48;4.50;;;16.80;99.90;;;;;;4832102;29;20050;-83
2023/10/07 01:38:08;;;;;;;24.17;4.25;;;16.50;99.90;;;;;;4844979;29;20050;-82
2023/10/07 01:43:10;;;;;;;17.40;3.95;;;16.90;99.90;;;;;;4852269;29;20054;-78
2023/10/07 01:45:39;;;;;;;16.98;4.25;;;16.90;99.90;;;;;;4828927;29;20054;-80
2023/10/07 01:48:09;;;;;;;15.90;4.05;;;16.90;99.90;;;;;;4826657;29;20082;-81
2023/10/07 01:50:43;;;;;;;22.30;3.80;;;16.90;99.90;;;;;;4816984;29;20054;-79
2023/10/07 01:53:11;;;;;;;;;;;17.00;99.90;;;;;;4830264;29;20050;-83
2023/10/07 01:55:43;;;;;;;16.45;3.65;;;17.00;99.90;;;;;;4841906;29;19925;-79
2023/10/07 01:58:17;;;;;;;17.85;4.03;;;17.00;99.90;;;;;;4819650;29;20153;-83
2023/10/07 02:00:46;;;;;;;15.50;3.67;;;17.00;99.90;;;;;;4834699;29;20054;-79
2023/10/07 02:03:23;;;;;;;14.57;3.53;;;17.00;99.90;;;;;;4830167;29;20039;-80
2023/10/07 02:05:50;;;;;;;23.27;4.35;;;17.10;99.90;;;;;;4832470;29;20046;-84
2023/10/07 02:08:22;;;;;;;16.00;3.25;;;17.10;99.90;;;;;;4819466;29;20043;-78
2023/10/07 02:10:51;;;;;;;21.35;3.42;;;17.10;99.90;;;;;;4803412;29;20050;-83
2023/10/07 02:13:19;;;;;;;17.38;3.90;;;17.10;99.90;;;;;;4828453;29;20039;-80
2023/10/07 02:15:46;;;;;;;22.42;3.85;;;16.40;99.90;;;;;;4816553;29;20118;-82
2023/10/07 02:18:15;;;;;;;17.67;4.47;;;17.20;99.90;;;;;;4816247;29;20766;-80
2023/10/07 02:20:49;;;;;;;20.55;4.15;;;17.20;99.90;;;;;;4831924;29;20054;-79
2023/10/07 02:23:22;;;;;;;15.38;3.78;;;17.20;99.90;;;;;;4829939;29;20050;-84
2023/10/07 02:25:50;;;;;;;12.80;3.15;;;17.20;99.90;;;;;;4844468;29;20114;-80
2023/10/07 02:28:21;;;;;;;11.30;3.10;;;17.20;99.90;;;;;;4827002;29;20526;-82
2023/10/07 02:30:51;;;;;;;19.42;4.07;;;17.30;99.90;;;;;;4786687;29;20057;-81
2023/10/07 02:33:21;;;;;;;12.63;3.53;;;17.30;99.90;;;;;;4815236;29;20083;-81
2023/10/07 02:35:54;;;;;;;14.23;3.30;;;17.30;99.90;;;;;;4834935;29;20042;-78
2023/10/07 02:38:26;;;;;;;13.20;4.15;;;17.30;99.90;;;;;;4816942;29;20079;-78
2023/10/07 02:40:59;;;;;;;16.63;3.92;;;17.30;99.90;;;;;;4801282;29;20046;-80
2023/10/07 02:43:27;;;;;;;19.17;3.97;;;17.30;99.90;;;;;;4826268;29;20045;-83
2023/10/07 02:45:53;;;;;;;13.27;3.53;;;17.30;99.90;;;;;;4819370;29;20095;-82
2023/10/07 02:48:19;;;;;;;15.50;3.97;;;17.30;99.90;;;;;;4802787;29;20058;-84
2023/10/07 02:50:46;;;;;;;18.45;3.75;;;17.20;99.90;;;;;;4800753;29;20042;-82
2023/10/07 02:53:15;;;;;;;18.52;4.53;;;17.20;99.90;;;;;;4818706;29;20440;-84
2023/10/07 02:55:47;;;;;;;15.10;3.83;;;17.30;99.90;;;;;;4802650;29;20645;-85
2023/10/07 02:58:32;;;;;;;14.82;3.22;;;17.30;99.90;;;;;;4832205;29;20054;-85
2023/10/07 03:01:14;;;;;;;15.50;3.33;;;17.30;99.90;;;;;;4815019;29;20038;-85
2023/10/07 03:03:50;;;;;;;13.35;3.53;;;17.20;99.90;;;;;;4842500;29;20065;-83
2023/10/07 03:06:26;;;;;;;14.30;3.28;;;17.30;99.90;;;;;;4827364;29;20129;-84
2023/10/07 03:09:01;;;;;;;10.27;3.08;;;17.30;99.90;;;;;;4801971;29;20072;-83
2023/10/07 03:11:40;;;;;;;15.73;3.67;;;17.30;99.90;;;;;;4838094;29;20046;-84
2023/10/07 03:14:06;;;;;;;14.77;3.92;;;17.30;99.90;;;;;;4823011;29;20540;-82
2023/10/07 03:16:47;;;;;;;14.15;3.53;;;17.30;99.90;;;;;;4826090;29;20056;-82
2023/10/07 03:19:22;;;;;;;17.83;4.00;;;17.30;99.90;;;;;;4814602;29;20093;-84
2023/10/07 03:22:09;;;;;;;17.77;3.35;;;17.30;99.90;;;;;;4833125;29;20046;-79
2023/10/07 03:25:00;;;;;;;10.05;3.63;;;17.30;99.90;;;;;;4827717;29;20054;-80
2023/10/07 03:27:26;;;;;;;13.40;3.17;;;17.30;99.90;;;;;;4816852;29;20046;-83
2023/10/07 03:30:00;;;;;;;23.42;4.68;;;17.30;99.90;;;;;;4773302;29;20089;-79
2023/10/07 03:32:48;;;;;;;11.20;3.38;;;17.30;99.90;;;;;;4836471;29;20124;-82
2023/10/07 03:35:26;;;;;;;12.18;4.32;;;17.20;99.90;;;;;;4845043;29;20050;-84
2023/10/07 03:37:56;;;;;;;16.27;3.55;;;17.20;99.90;;;;;;4817852;29;20047;-85
2023/10/07 03:40:35;;;;;;;21.20;3.53;;;17.30;99.90;;;;;;4799695;29;20141;-83
2023/10/07 03:43:02;;;;;;;13.57;3.15;;;17.20;99.90;;;;;;4809640;29;20047;-85
2023/10/07 03:45:29;;;;;;;18.58;3.42;;;17.20;99.90;;;;;;4817305;29;20133;-82
2023/10/07 03:47:57;;;;;;;12.75;3.25;;;17.30;99.90;;;;;;4817237;29;20076;-84
2023/10/07 03:50:34;;;;;;;12.60;3.25;;;17.30;99.90;;;;;;4832546;29;20062;-84
2023/10/07 03:53:05;;;;;;;15.20;3.80;;;17.30;99.90;;;;;;4795460;29;20035;-79
2023/10/07 03:55:31;;;;;;;18.42;3.75;;;17.30;99.90;;;;;;4824396;29;20442;-80
2023/10/07 03:57:57;;;;;;;16.27;3.50;;;17.30;99.90;;;;;;4806635;29;20484;-82
2023/10/07 04:00:28;;;;;;;17.67;3.50;;;17.30;99.90;;;;;;4835993;29;20086;-83
2023/10/07 04:02:54;;;;;;;15.68;4.25;;;17.30;99.90;;;;;;4804587;29;20056;-80
2023/10/07 04:05:31;;;;;;;16.70;4.18;;;17.30;99.90;;;;;;4836611;29;20069;-82
2023/10/07 04:07:57;;;;;;;11.60;3.45;;;17.30;99.90;;;;;;4832614;29;20102;-84
2023/10/07 04:10:30;;;;;;;14.93;3.88;;;17.30;99.90;;;;;;4805715;29;20177;-80
2023/10/07 04:12:56;;;;;;;15.07;3.43;;;17.30;99.90;;;;;;4819632;29;20038;-80
2023/10/07 04:15:29;;;;;;;16.77;4.07;;;17.30;99.90;;;;;;4834627;29;20072;-82
2023/10/07 04:17:55;;;;;;;18.13;4.25;;;17.30;99.90;;;;;;4819103;29;20066;-84
2023/10/07 04:20:50;;;;;;;17.05;4.30;;;17.30;99.90;;;;;;4836706;29;20388;-84
2023/10/07 04:23:12;;;;;;;13.88;3.25;;;17.30;99.90;;;;;;4814995;29;20054;-83
2023/10/07 04:25:43;;;;;;;19.15;3.13;;;17.30;99.90;;;;;;4805347;29;20050;-83
2023/10/07 04:28:13;;;;;;;12.95;3.10;;;17.30;99.90;;;;;;4816617;29;20123;-83
2023/10/07 04:30:39;;;;;;;17.45;3.53;;;17.30;99.90;;;;;;4835126;29;20476;-83
2023/10/07 04:33:08;;;;;;;18.42;3.28;;;17.30;99.90;;;;;;4842209;29;20138;-83
2023/10/07 04:35:34;;;;;;;11.07;3.25;;;17.30;99.90;;;;;;4829868;29;20082;-84
2023/10/07 04:38:09;;;;;;;10.75;3.22;;;17.30;99.90;;;;;;4836972;29;20084;-83
2023/10/07 04:41:43;;;;;;;15.63;4.18;;;17.20;99.90;;;;;;4830008;29;20049;-84
2023/10/07 04:43:36;;;;;;;15.93;4.63;;;17.20;99.90;;;;;;4841409;29;20090;-85
2023/10/07 04:46:21;;;;;;;15.77;3.58;;;17.20;99.90;;;;;;4836645;29;20444;-81
2023/10/07 04:48:54;;;;;;;19.88;3.53;;;17.30;99.90;;;;;;4821175;29;20115;-81
2023/10/07 04:51:46;;;;;;;13.73;3.45;;;17.20;99.90;;;;;;4799376;29;20487;-84
2023/10/07 04:54:20;;;;;;;8.43;2.92;;;17.20;99.90;;;;;;4820343;29;20138;-81
2023/10/07 04:56:48;;;;;;;14.50;3.67;;;17.20;99.90;;;;;;4820960;29;20034;-78
2023/10/07 04:59:20;;;;;;;15.15;3.42;;;17.20;99.90;;;;;;4825201;29;20137;-78
2023/10/07 05:01:56;;;;;;;21.58;4.47;;;17.30;99.90;;;;;;4818576;29;20076;-78
2023/10/07 05:04:28;;;;;;;14.95;4.63;;;17.20;99.90;;;;;;4831043;29;20125;-82
2023/10/07 05:06:56;;;;;;;19.60;3.70;;;17.30;99.90;;;;;;4821463;29;20110;-80
2023/10/07 05:09:26;;;;;;;15.18;3.90;;;17.30;99.90;;;;;;4823477;29;20210;-81
2023/10/07 05:11:57;;;;;;;13.73;3.25;;;17.20;99.90;;;;;;4806113;29;20054;-81
2023/10/07 05:14:25;;;;;;;18.33;3.60;;;17.30;99.90;;;;;;4831571;29;20057;-79
2023/10/07 05:16:52;;;;;;;11.38;3.60;;;17.30;99.90;;;;;;4820930;29;20397;-82
2023/10/07 05:19:27;;;;;;;18.52;3.13;;;17.20;99.90;;;;;;4830841;29;20059;-84
2023/10/07 05:22:14;;;;;;;19.02;3.42;;;17.20;99.90;;;;;;4833507;29;20083;-83
2023/10/07 05:24:46;;;;;;;17.95;3.20;;;17.20;99.90;;;;;;4832978;29;20058;-83
2023/10/07 05:27:17;;;;;;;10.63;3.20;;;17.20;99.90;;;;;;4820710;29;20107;-83
2023/10/07 05:29:46;;;;;;;12.90;3.30;;;17.10;99.90;;;;;;4800581;29;20057;-80
2023/10/07 05:32:17;;;;;;;15.95;3.10;;;17.20;99.90;;;;;;4820134;29;20074;-80
2023/10/07 05:34:45;;;;;;;15.90;3.30;;;17.20;99.90;;;;;;4815234;29;20142;-84
2023/10/07 05:37:12;;;;;;;18.42;3.78;;;17.10;99.90;;;;;;4834169;29;20066;-83
2023/10/07 05:39:44;;;;;;;12.18;3.28;;;17.10;99.90;;;;;;4828113;29;20054;-83
2023/10/07 05:42:11;;;;;;;11.52;3.35;;;17.10;99.90;;;;;;4842068;29;20047;-79
2023/10/07 05:44:39;;;;;;;12.68;3.28;;;17.20;99.90;;;;;;4827842;29;20054;-81
2023/10/07 05:47:16;;;;;;;9.63;2.92;;;17.10;99.90;;;;;;4814174;29;20054;-80
2023/10/07 05:49:55;;;;;;;12.88;3.03;;;17.20;99.90;;;;;;4826862;29;20054;-79
2023/10/07 05:52:21;;;;;;;10.35;3.15;;;17.10;99.90;;;;;;4826200;29;20899;-81
2023/10/07 05:54:51;;;;;;;16.45;3.03;;;17.10;99.90;;;;;;4812797;29;20483;-79
2023/10/07 05:57:17;;;;;;;14.10;2.83;;;17.10;99.90;;;;;;4797639;29;20082;-81
2023/10/07 05:59:46;;;;;;;16.98;3.20;;;17.10;99.90;;;;;;4827355;29;20182;-79
2023/10/07 06:02:15;;;;;;;10.88;3.10;;;17.10;99.90;;;;;;4827284;29;20091;-81
2023/10/07 06:04:44;;;;;;;12.70;3.10;;;17.00;99.90;;;;;;4784026;29;20046;-82
2023/10/07 06:07:20;;;;;;;11.32;2.70;;;16.90;99.90;;;;;;4826207;29;20162;-79
2023/10/07 06:09:47;;;;;;;15.23;3.65;;;17.00;99.90;;;;;;4826946;29;20046;-82
2023/10/07 06:12:15;;;;;;;13.85;2.47;;;17.00;99.90;;;;;;4826627;29;20054;-80
2023/10/07 06:14:42;;;;;;;11.77;3.28;;;17.00;99.90;;;;;;4826859;29;20519;-82
2023/10/07 06:17:11;;;;;;;14.98;3.13;;;17.00;99.90;;;;;;4796155;29;20074;-81
2023/10/07 06:19:38;;;;;;;12.63;2.78;;;17.00;99.90;;;;;;4811650;29;20042;-83
2023/10/07 06:22:14;;;;;;;14.90;3.03;;;17.00;99.90;;;;;;4827449;29;20388;-81
2023/10/07 06:24:52;;;;;;;16.40;3.25;;;17.00;99.90;;;;;;4816498;29;20065;-79
2023/10/07 06:27:21;;;;;;;;;;;17.00;99.90;;;;;;4829858;29;20073;-79
2023/10/07 06:30:09;;;;;;;14.13;3.05;;;16.90;99.90;;;;;;4847791;29;19995;-82
2023/10/07 06:32:46;;;;;;;20.98;3.67;;;16.90;99.90;;;;;;4806580;29;20046;-82
2023/10/07 06:35:14;;;;;;;13.57;3.22;;;17.00;99.90;;;;;;4831378;29;20269;-83
2023/10/07 06:37:44;;;;;;;12.73;3.17;;;17.00;99.90;;;;;;4804724;29;20061;-81
2023/10/07 06:40:28;;;;;;;14.23;3.50;;;17.00;99.90;;;;;;4815280;29;20053;-82
2023/10/07 06:42:58;;;;;;;13.93;2.90;;;17.00;99.90;;;;;;4829408;29;20046;-82
2023/10/07 06:45:36;;;;;;;11.43;3.13;;;17.00;99.90;;;;;;4829842;29;20072;-76
2023/10/07 06:48:06;;;;;;;13.57;3.35;;;17.00;99.90;;;;;;4809084;29;20050;-77
2023/10/07 06:50:33;;;;;;;12.80;3.00;;;17.00;99.90;;;;;;4819210;29;20062;-75
2023/10/07 06:52:59;;;;;;;16.88;2.97;;;17.00;99.90;;;;;;4795464;29;20400;-76
2023/10/07 06:55:24;;;;;;;14.65;3.70;;;17.10;99.90;;;;;;4821076;29;20506;-76
2023/10/07 06:57:56;;;;;;;10.82;2.92;;;17.00;99.90;;;;;;4819879;29;20042;-76
2023/10/07 07:00:23;;;;;;;8.68;2.88;;;17.10;99.90;;;;;;4826939;29;20105;-76
2023/10/07 07:02:59;;;;;;;10.88;3.67;;;17.10;99.90;;;;;;4843314;29;20454;-76
2023/10/07 07:05:26;;;;;;;10.93;2.70;;;17.10;99.90;;;;;;4832533;29;20451;-78
2023/10/07 07:07:54;;;;;;;18.45;3.47;;;17.10;99.90;;;;;;4803468;29;20171;-76
2023/10/07 07:10:28;;;;;;;14.18;3.40;;;17.10;99.90;;;;;;4831558;29;20046;-76
2023/10/07 07:13:05;;;;;;;11.95;3.25;;;17.00;99.90;;;;;;4844824;29;20091;-77
2023/10/07 07:15:36;;;;;;;13.48;3.42;;;17.10;99.90;;;;;;4824995;29;20110;-76
2023/10/07 07:18:08;;;;;;;17.00;3.53;;;17.10;99.90;;;;;;4815691;29;20419;-78
2023/10/07 07:21:31;;;;;;;15.05;3.47;;;16.60;99.90;;;;;;4824354;29;20050;-82
2023/10/07 07:23:34;;;;;;;13.98;3.33;;;17.10;99.90;;;;;;4807516;29;20700;-80
2023/10/07 07:26:09;;;;;;;11.27;3.15;;;17.10;99.90;;;;;;4841813;29;20488;-80
2023/10/07 07:28:35;;;;;;;11.43;3.22;;;17.10;99.90;;;;;;4794976;29;20050;-77
2023/10/07 07:31:02;;;;;;;14.35;3.45;;;17.10;99.90;;;;;;4816993;29;20111;-77
2023/10/07 07:33:37;;;;;;;14.85;3.08;;;17.20;99.90;;;;;;4837365;29;20689;-78
2023/10/07 07:36:18;;;;;;;14.05;3.92;;;17.20;99.90;;;;;;4837793;29;20079;-78
2023/10/07 07:38:47;;;;;;;12.23;3.33;;;17.20;99.90;;;;;;4838484;29;20055;-78
2023/10/07 07:41:34;;;;;;;11.25;4.13;;;17.20;99.90;;;;;;4802885;29;20126;-78
2023/10/07 07:44:02;;;;;;;10.80;3.80;;;17.20;99.90;;;;;;4826381;29;20058;-77
2023/10/07 07:46:46;;;;;;;10.75;2.88;;;17.30;99.90;;;;;;4827396;29;20141;-77
2023/10/07 07:49:12;;;;;;;11.85;3.28;;;17.30;99.90;;;;;;4823113;29;20054;-77
2023/10/07 07:51:38;;;;;;;18.83;3.55;;;17.30;99.90;;;;;;4837668;29;20043;-78
2023/10/07 07:54:07;;;;;;;16.30;3.67;;;17.30;99.90;;;;;;4829815;29;20046;-78
2023/10/07 07:56:34;;;;;;;16.55;3.80;;;17.40;99.90;;;;;;4814500;29;20142;-78
2023/10/07 07:59:03;;;;;;;14.68;3.67;;;17.40;99.90;;;;;;4801216;29;20713;-78
2023/10/07 08:01:28;;;;;;;10.80;3.50;;;17.40;99.90;;;;;;4802354;29;20046;-78
2023/10/07 08:03:59;;;;;;;9.73;3.35;;;17.40;99.90;;;;;;4816578;29;20557;-78
2023/10/07 08:06:25;;;;;;;10.13;3.35;;;17.50;99.90;;;;;;4801384;29;20042;-79
2023/10/07 08:08:53;;;;;;;15.90;3.45;;;18.00;99.90;;;;;;4842528;29;20058;-77
2023/10/07 08:11:19;;;;;;;14.15;3.60;;;17.50;99.90;;;;;;4801141;29;20042;-76
2023/10/07 08:13:45;;;;;;;11.30;3.42;;;17.50;99.90;;;;;;4824834;29;20061;-77
2023/10/07 08:16:19;;;;;;;13.48;3.28;;;17.60;99.90;;;;;;4840949;29;20059;-77
2023/10/07 08:18:48;;;;;;;17.98;4.30;;;17.60;99.90;;;;;;4794200;29;20053;-78
2023/10/07 08:21:14;;;;;;;13.65;3.38;;;17.60;99.90;;;;;;4837382;29;20039;-78
2023/10/07 08:23:41;;;;;;;10.70;2.95;;;17.30;99.90;;;;;;4845753;29;20057;-76
2023/10/07 08:26:10;;;;;;;17.23;3.25;;;17.60;99.90;;;;;;4822268;29;20047;-76
2023/10/07 08:28:45;;;;;;;19.77;4.25;;;17.70;99.90;;;;;;4822067;29;20062;-76
2023/10/07 08:31:19;;;;;;;11.35;3.17;;;17.60;99.90;;;;;;4818089;29;20543;-77
2023/10/07 08:34:09;;;;;;;13.30;4.00;;;17.70;99.90;;;;;;4825001;29;20049;-77
2023/10/07 08:36:47;;;;;;;15.95;3.97;;;17.60;99.90;;;;;;4836642;29;20144;-77
2023/10/07 08:39:17;;;;;;;13.50;3.60;;;17.60;99.90;;;;;;4844012;29;20141;-77
2023/10/07 08:41:47;;;;;;;15.00;4.47;;;17.60;99.90;;;;;;4843303;29;20059;-76
2023/10/07 08:44:13;;;;;;;10.80;3.17;;;17.70;99.90;;;;;;4826242;29;20119;-76
2023/10/07 08:46:52;;;;;;;17.83;3.88;;;17.70;99.90;;;;;;4840984;29;20054;-78
2023/10/07 08:49:27;;;;;;;13.07;3.35;;;17.70;99.90;;;;;;4826688;29;20063;-77
2023/10/07 08:51:54;;;;;;;12.18;4.10;;;17.70;99.90;;;;;;4818305;29;20137;-77
2023/10/07 08:54:27;;;;;;;14.23;4.53;;;17.70;99.90;;;;;;4841063;29;20042;-77
2023/10/07 08:56:57;;;;;;;18.92;4.68;;;17.70;99.90;;;;;;4841570;29;20432;-76
2023/10/07 08:59:33;;;;;;;13.75;3.75;;;17.70;99.90;;;;;;4813022;29;20060;-77
2023/10/07 09:02:12;;;;;;;16.35;3.90;;;17.70;99.90;;;;;;4849181;29;20050;-77
2023/10/07 09:04:40;;;;;;;19.05;4.80;;;17.70;99.90;;;;;;4825510;29;20047;-77
2023/10/07 09:07:08;;;;;;;15.57;4.50;;;17.70;99.90;;;;;;4843308;29;20518;-77
2023/10/07 09:09:38;;;;;;;20.75;5.07;;;17.70;99.90;;;;;;4812473;29;20057;-76
2023/10/07 09:14:57;;;;;;;9.18;3.70;;;17.70;99.90;;;;;;4851169;29;20133;-77
2023/10/07 09:17:26;;;;;;;17.17;4.63;;;17.70;99.90;;;;;;4810923;29;20137;-77
2023/10/07 09:19:58;;;;;;;17.98;4.53;;;17.70;99.90;;;;;;4825954;29;20051;-77
2023/10/07 09:22:27;;;;;;;17.50;5.00;;;17.80;99.90;;;;;;4813133;29;20045;-77
2023/10/07 09:24:55;;;;;;;16.67;4.45;;;17.80;99.90;;;;;;4796261;29;20053;-77
2023/10/07 09:27:36;;;;;;;17.60;4.22;;;17.70;99.90;;;;;;4831728;29;20078;-78
2023/10/07 09:32:55;;;;;;;12.98;4.80;;;17.80;99.90;;;;;;4841112;29;20051;-76
2023/10/07 09:35:24;;;;;;;15.98;4.78;;;17.80;99.90;;;;;;4826202;29;20057;-77
2023/10/07 09:37:53;;;;;;;14.63;4.60;;;17.80;99.90;;;;;;4816112;29;20058;-77
2023/10/07 09:43:13;;;;;;;17.33;5.20;;;17.90;99.90;;;;;;4843438;29;20075;-77
2023/10/07 09:45:39;;;;;;;13.75;4.05;;;17.90;99.90;;;;;;4842351;29;20654;-77
2023/10/07 09:48:08;;;;;;;14.02;5.15;;;17.90;99.90;;;;;;4824710;29;20488;-77
2023/10/07 09:50:37;;;;;;;16.27;4.50;;;18.00;99.90;;;;;;4847999;29;20191;-76
2023/10/07 09:53:41;;;;;;;13.02;4.60;;;18.00;99.90;;;;;;4847206;29;20507;-77
2023/10/07 09:56:33;;;;;;;15.50;4.10;;;18.00;99.90;;;;;;4827160;29;20370;-77
2023/10/07 09:59:32;;;;;;;14.00;4.93;;;18.10;99.90;;;;;;4814490;29;20058;-77
2023/10/07 10:02:32;;;;;;;12.70;4.60;;;16.90;99.90;;;;;;4842721;29;20103;-77
2023/10/07 10:04:58;;;;;;;12.63;3.45;;;18.00;99.90;;;;;;4827588;29;20059;-77
2023/10/07 10:07:51;;;;;;;12.43;3.95;;;18.10;99.90;;;;;;4827185;29;20039;-77
2023/10/07 10:10:18;;;;;;;16.90;4.22;;;18.10;99.90;;;;;;4824344;29;20046;-77
2023/10/07 10:12:56;;;;;;;14.05;4.40;;;18.10;99.90;;;;;;4830694;29;20061;-77
2023/10/07 10:18:35;;;;;;;13.20;4.55;;;18.10;99.90;;;;;;4839850;29;20119;-78
2023/10/07 10:21:04;;;;;;;16.17;4.60;;;18.10;99.90;;;;;;4810629;29;20090;-78
2023/10/07 10:23:33;;;;;;;16.92;4.57;;;18.20;99.90;;;;;;4803746;29;20488;-78
2023/10/07 10:26:13;;;;;;;13.60;4.75;;;18.20;99.90;;;;;;4827048;29;20066;-78
2023/10/07 10:28:41;;;;;;;13.82;4.93;;;18.20;99.90;;;;;;4796835;29;20049;-78
2023/10/07 10:31:21;;;;;;;16.73;4.63;;;18.20;99.90;;;;;;4825528;29;20052;-79
2023/10/07 10:33:50;;;;;;;12.35;4.07;;;18.30;99.90;;;;;;4818354;29;20141;-78
2023/10/07 10:36:22;;;;;;;16.13;4.90;;;18.30;99.90;;;;;;4831204;29;20067;-80
2023/10/07 10:38:48;;;;;;;10.30;3.83;;;18.30;99.90;;;;;;4824043;29;20055;-77
2023/10/07 10:41:14;;;;;;;14.85;4.43;;;18.30;99.90;;;;;;4822000;29;20053;-79
2023/10/07 10:43:40;;;;;;;15.85;4.60;;;18.40;99.90;;;;;;4838022;29;20547;-78
2023/10/07 10:46:07;;;;;;;10.55;4.07;;;18.30;99.90;;;;;;4827424;29;20137;-77
2023/10/07 10:48:38;;;;;;;16.70;4.55;;;18.40;99.90;;;;;;4827629;29;20054;-77
2023/10/07 10:51:05;;;;;;;13.65;3.88;;;18.40;99.90;;;;;;4826004;29;20131;-78
2023/10/07 10:53:41;;;;;;;15.15;4.55;;;18.50;99.90;;;;;;4796150;29;20050;-75
2023/10/07 10:56:08;;;;;;;12.88;4.88;;;18.50;99.90;;;;;;4838310;29;20396;-78
2023/10/07 10:58:36;;;;;;;18.85;4.93;;;18.40;99.90;;;;;;4828849;29;20516;-76
2023/10/07 11:01:06;;;;;;;21.73;4.65;;;18.50;99.90;;;;;;4802193;29;20047;-78
2023/10/07 11:03:32;;;;;;;12.82;4.68;;;18.50;99.90;;;;;;4810154;29;20502;-78
2023/10/07 11:06:00;;;;;;;16.38;5.13;;;18.50;99.90;;;;;;4841172;29;20050;-77
2023/10/07 11:08:26;;;;;;;14.85;4.47;;;18.50;99.90;;;;;;4804482;29;20051;-82
2023/10/07 11:10:57;;;;;;;14.50;3.88;;;18.50;99.90;;;;;;4820133;29;20054;-83
2023/10/07 11:13:24;;;;;;;15.57;4.57;;;18.50;99.90;;;;;;4847411;29;20110;-80
2023/10/07 11:16:10;;;;;;;13.55;4.10;;;18.90;99.90;;;;;;4825323;29;20547;-80
2023/10/07 11:18:38;;;;;;;17.23;5.03;;;18.30;99.90;;;;;;4811495;29;20054;-79
2023/10/07 11:21:09;;;;;;;14.93;4.25;;;18.30;99.90;;;;;;4793940;29;20138;-79
2023/10/07 11:23:49;;;;;;;14.48;4.30;;;18.30;99.90;;;;;;4837712;29;20138;-79
2023/10/07 11:26:20;;;;;;;21.40;5.03;;;18.40;99.90;;;;;;4836572;29;20039;-79
2023/10/07 11:28:51;;;;;;;14.48;3.97;;;18.30;99.90;;;;;;4795857;29;20587;-79
2023/10/07 11:31:31;;;;;;;16.20;4.05;;;18.30;99.90;;;;;;4822907;29;20448;-79
2023/10/07 11:33:57;;;;;;;17.30;4.72;;;18.30;99.90;;;;;;4830410;29;20406;-79
2023/10/07 11:36:23;;;;;;;15.77;4.43;;;18.30;99.90;;;;;;4813897;29;20047;-78
2023/10/07 11:38:50;;;;;;;18.70;4.55;;;18.40;99.90;;;;;;4837710;29;20077;-77
2023/10/07 11:41:16;;;;;;;18.25;4.43;;;18.30;99.90;;;;;;4801611;29;20051;-80
2023/10/07 11:43:43;;;;;;;19.48;4.57;;;18.40;99.90;;;;;;4800205;29;20046;-81
2023/10/07 11:46:11;;;;;;;15.55;5.15;;;18.40;99.90;;;;;;4816831;29;20187;-78
2023/10/07 11:48:41;;;;;;;14.07;4.78;;;18.30;99.90;;;;;;4817094;29;20155;-81
2023/10/07 11:51:07;;;;;;;13.50;4.38;;;18.30;99.90;;;;;;4840089;29;20415;-82
2023/10/07 11:53:34;;;;;;;16.58;5.53;;;18.30;99.90;;;;;;4801834;29;20050;-80
2023/10/07 11:56:00;;;;;;;19.13;4.25;;;18.30;99.90;;;;;;4831880;29;20441;-78
2023/10/07 11:58:27;;;;;;;14.50;4.43;;;18.30;99.90;;;;;;4802625;29;20055;-81
2023/10/07 12:00:55;;;;;;;16.23;4.55;;;18.30;99.90;;;;;;4816361;29;20060;-80
2023/10/07 12:03:24;;;;;;;18.83;5.70;;;18.40;99.90;;;;;;4814220;29;20062;-84
2023/10/07 12:05:49;;;;;;;12.88;4.07;;;18.40;99.90;;;;;;4829395;29;20098;-81
2023/10/07 12:08:15;;;;;;;15.50;4.72;;;18.40;99.90;;;;;;4811767;29;20046;-81
2023/10/07 12:10:41;;;;;;;14.15;4.60;;;18.40;99.90;;;;;;4817098;29;20504;-84
2023/10/07 12:13:07;;;;;;;19.33;5.10;;;18.40;99.90;;;;;;4832782;29;20067;-80
2023/10/07 12:15:34;;;;;;;21.15;4.45;;;18.40;99.90;;;;;;4843280;29;20063;-80
2023/10/07 12:18:02;;;;;;;12.32;3.97;;;18.40;99.90;;;;;;4817146;29;20095;-80
2023/10/07 12:20:28;;;;;;;12.93;4.15;;;18.40;99.90;;;;;;4831132;29;20079;-80
2023/10/07 12:22:54;;;;;;;17.27;5.28;;;18.40;99.90;;;;;;4822976;29;20106;-77
2023/10/07 12:25:21;;;;;;;14.00;3.78;;;18.30;99.90;;;;;;4810626;29;20054;-78
2023/10/07 12:27:47;;;;;;;14.38;4.50;;;18.30;99.90;;;;;;4817546;29;20055;-78
2023/10/07 12:30:17;;;;;;;20.52;4.88;;;18.30;99.90;;;;;;4806276;29;20114;-79
2023/10/07 12:32:43;;;;;;;12.48;4.97;;;18.20;99.90;;;;;;4830202;29;20157;-78
2023/10/07 12:35:10;;;;;;;15.63;4.97;;;18.20;99.90;;;;;;4845238;29;20523;-79
2023/10/07 12:37:41;;;;;;;13.88;4.60;;;18.30;99.90;;;;;;4804322;29;20070;-77
2023/10/07 12:40:11;;;;;;;16.27;4.50;;;18.20;99.90;;;;;;4828856;29;20137;-78
2023/10/07 12:42:41;;;;;;;16.25;4.60;;;18.20;99.90;;;;;;4828900;29;20042;-78
2023/10/07 12:45:09;;;;;;;15.68;3.78;;;18.10;99.90;;;;;;4841535;29;20046;-78
2023/10/07 12:47:36;;;;;;;19.35;4.85;;;18.10;99.90;;;;;;4825254;29;20039;-79
2023/10/07 12:50:20;;;;;;;12.27;4.65;;;18.20;99.90;;;;;;4828588;29;20526;-79
2023/10/07 12:52:53;;;;;;;16.85;4.85;;;18.10;99.90;;;;;;4805645;29;20078;-78
2023/10/07 12:55:19;;;;;;;15.05;4.55;;;18.10;99.90;;;;;;4828491;29;20137;-79
2023/10/07 12:57:49;;;;;;;18.40;4.63;;;18.20;99.90;;;;;;4813705;29;20049;-79
2023/10/07 13:00:33;;;;;;;12.45;4.07;;;18.10;99.90;;;;;;4827984;29;20137;-78
2023/10/07 13:03:01;;;;;;;16.63;4.57;;;18.20;99.90;;;;;;4834343;29;20046;-79
2023/10/07 13:05:32;;;;;;;14.48;4.47;;;18.10;99.90;;;;;;4841290;29;20050;-80
2023/10/07 13:07:59;;;;;;;12.07;4.20;;;18.10;99.90;;;;;;4841793;29;20059;-79
2023/10/07 13:10:26;;;;;;;12.40;4.55;;;18.00;99.90;;;;;;4817369;29;20046;-78
2023/10/07 13:12:57;;;;;;;13.90;4.32;;;18.10;99.90;;;;;;4828771;29;20077;-78
2023/10/07 13:15:36;;;;;;;15.43;5.43;;;18.00;99.90;;;;;;4813362;29;20129;-78
2023/10/07 13:18:02;;;;;;;12.05;3.72;;;18.00;99.90;;;;;;4827482;29;20042;-79
2023/10/07 13:20:29;;;;;;;14.07;4.05;;;18.00;99.90;;;;;;4825947;29;20085;-79